Time;durP1;ratioP1;P1;durP2;ratioP2;P2;SDS_P1;SDS_P2;PMS_P1;PMS_P2;Temp;Humidity;BMP_temperature;BMP_pressure;BME280_temperature;BME280_humidity;BME280_pressure;Samples;Min_cycle;Max_cycle;Signal;HPM_P1;HPM_P2
2022/10/01 00:02:08;;;;;;;0.10;0.10;;;8.40;99.90;;;;;;4977900;28;20280;-74
2022/10/01 00:04:37;;;;;;;0.10;0.10;;;8.50;99.90;;;;;;4992179;28;20280;-76
2022/10/01 00:07:13;;;;;;;0.10;0.10;;;8.40;99.90;;;;;;4986728;28;20251;-75
2022/10/01 00:09:41;;;;;;;0.10;0.10;;;8.40;99.90;;;;;;4994914;28;20203;-75
2022/10/01 00:12:09;;;;;;;0.10;0.10;;;8.30;99.90;;;;;;4978052;28;20205;-74
2022/10/01 00:14:38;;;;;;;0.10;0.10;;;8.20;99.90;;;;;;4991856;28;20200;-76
2022/10/01 00:17:07;;;;;;;0.10;0.10;;;8.20;99.90;;;;;;4975508;28;20206;-74
2022/10/01 00:19:35;;;;;;;0.10;0.10;;;8.20;99.90;;;;;;4989193;28;20208;-74
2022/10/01 00:22:03;;;;;;;0.10;0.10;;;8.20;99.90;;;;;;4969692;28;20222;-74
2022/10/01 00:24:31;;;;;;;0.10;0.10;;;8.30;99.90;;;;;;4978655;28;20951;-74
2022/10/01 00:26:59;;;;;;;0.10;0.10;;;8.30;99.90;;;;;;4979500;28;20227;-75
2022/10/01 00:29:27;;;;;;;0.10;0.10;;;8.30;99.90;;;;;;4984183;28;20216;-76
2022/10/01 00:31:55;;;;;;;0.10;0.10;;;8.40;99.90;;;;;;4971408;28;21176;-75
2022/10/01 00:34:25;;;;;;;0.10;0.10;;;8.40;99.90;;;;;;4977803;28;20319;-76
2022/10/01 00:36:53;;;;;;;0.10;0.10;;;8.30;99.90;;;;;;4985199;28;20602;-77
2022/10/01 00:39:22;;;;;;;0.10;0.10;;;8.30;99.90;;;;;;4991315;28;20208;-77
2022/10/01 00:41:51;;;;;;;0.10;0.10;;;8.30;99.90;;;;;;4988928;28;20220;-76
2022/10/01 00:44:31;;;;;;;0.10;0.10;;;8.30;99.90;;;;;;4988898;28;20200;-75
2022/10/01 00:47:04;;;;;;;0.10;0.10;;;8.30;99.90;;;;;;4986630;28;20207;-76
2022/10/01 00:49:36;;;;;;;0.10;0.10;;;8.30;99.90;;;;;;4987030;28;20252;-76
2022/10/01 00:52:08;;;;;;;0.10;0.10;;;8.20;99.90;;;;;;4972493;28;20244;-76
2022/10/01 00:54:42;;;;;;;0.10;0.10;;;8.10;99.90;;;;;;4984680;28;20268;-75
2022/10/01 00:57:13;;;;;;;0.10;0.10;;;8.10;99.90;;;;;;4964357;28;20220;-76
2022/10/01 00:59:41;;;;;;;0.10;0.10;;;8.10;99.90;;;;;;4981573;28;20200;-75
2022/10/01 01:02:09;;;;;;;0.10;0.10;;;8.00;99.90;;;;;;4986528;28;20209;-75
2022/10/01 01:04:41;;;;;;;0.10;0.10;;;8.00;99.90;;;;;;4980906;28;20209;-75
2022/10/01 01:07:09;;;;;;;0.10;0.10;;;8.00;99.90;;;;;;4984374;28;20669;-75
2022/10/01 01:09:41;;;;;;;0.05;0.05;;;8.00;99.90;;;;;;4988116;28;20235;-75
2022/10/01 01:12:23;;;;;;;0.10;0.10;;;7.90;99.90;;;;;;4991025;28;20474;-76
2022/10/01 01:15:03;;;;;;;0.10;0.10;;;8.00;99.90;;;;;;4987926;28;20703;-75
2022/10/01 01:17:38;;;;;;;0.10;0.10;;;8.00;99.90;;;;;;4990103;28;20692;-75
2022/10/01 01:20:28;;;;;;;0.00;0.00;;;7.90;99.90;;;;;;4954595;29;20268;-77
2022/10/01 01:23:09;;;;;;;0.10;0.10;;;7.90;99.90;;;;;;4960944;28;20211;-75
2022/10/01 01:25:46;;;;;;;0.10;0.10;;;7.90;99.90;;;;;;4983412;28;20216;-76
2022/10/01 01:28:22;;;;;;;0.10;0.10;;;7.90;99.90;;;;;;4993179;28;20278;-75
2022/10/01 01:30:56;;;;;;;0.10;0.10;;;7.90;99.90;;;;;;4993454;28;20219;-75
2022/10/01 01:33:27;;;;;;;0.10;0.10;;;8.00;99.90;;;;;;4979315;28;20223;-75
2022/10/01 01:35:59;;;;;;;0.10;0.10;;;7.90;99.90;;;;;;4961150;28;20272;-76
2022/10/01 01:38:30;;;;;;;0.10;0.10;;;7.90;99.90;;;;;;4971491;28;20210;-75
2022/10/01 01:41:01;;;;;;;0.00;0.00;;;7.90;99.90;;;;;;4974704;28;20220;-75
2022/10/01 01:43:33;;;;;;;0.08;0.08;;;8.00;99.90;;;;;;4985015;28;20200;-76
2022/10/01 01:46:04;;;;;;;0.10;0.10;;;8.00;99.90;;;;;;4954543;28;20247;-75
2022/10/01 01:48:35;;;;;;;0.00;0.00;;;8.00;99.90;;;;;;4992797;28;20204;-74
2022/10/01 01:51:09;;;;;;;0.10;0.10;;;8.00;99.90;;;;;;4988304;28;20286;-76
2022/10/01 01:53:37;;;;;;;0.10;0.10;;;7.90;99.90;;;;;;4984338;28;20232;-75
2022/10/01 01:56:06;;;;;;;0.10;0.10;;;7.90;99.90;;;;;;4982422;28;20846;-74
2022/10/01 01:58:37;;;;;;;0.00;0.00;;;7.90;99.90;;;;;;4992584;28;20200;-74
2022/10/01 02:01:05;;;;;;;0.10;0.10;;;7.80;99.90;;;;;;4992422;28;20227;-74
2022/10/01 02:03:34;;;;;;;0.10;0.10;;;7.80;99.90;;;;;;4967982;28;20200;-75
2022/10/01 02:06:12;;;;;;;0.10;0.10;;;7.80;99.90;;;;;;4982962;28;20204;-75
2022/10/01 02:08:46;;;;;;;0.10;0.10;;;7.80;99.90;;;;;;4992885;28;20574;-75
2022/10/01 02:11:23;;;;;;;0.10;0.10;;;7.80;99.90;;;;;;4993171;28;20215;-75
2022/10/01 02:14:03;;;;;;;0.10;0.10;;;7.80;99.90;;;;;;4980480;28;20278;-75
2022/10/01 02:16:37;;;;;;;0.10;0.10;;;7.80;99.90;;;;;;4981879;28;20200;-75
2022/10/01 02:19:10;;;;;;;0.00;0.00;;;7.80;99.90;;;;;;4978551;28;20204;-75
2022/10/01 02:21:41;;;;;;;0.10;0.10;;;7.80;99.90;;;;;;4991189;28;20255;-76
2022/10/01 02:24:18;;;;;;;0.10;0.10;;;7.70;99.90;;;;;;4964346;28;20196;-75
2022/10/01 02:26:49;;;;;;;0.10;0.10;;;7.60;99.90;;;;;;4984932;28;20259;-75
2022/10/01 02:29:21;;;;;;;0.10;0.10;;;7.60;99.90;;;;;;4991916;28;20679;-75
2022/10/01 02:31:54;;;;;;;0.10;0.10;;;7.60;99.90;;;;;;4983612;28;20287;-76
2022/10/01 02:34:26;;;;;;;0.10;0.10;;;7.60;99.90;;;;;;4982213;28;20220;-75
2022/10/01 02:36:56;;;;;;;0.10;0.10;;;7.60;99.90;;;;;;4985095;28;20204;-75
2022/10/01 02:39:27;;;;;;;0.10;0.10;;;7.70;99.90;;;;;;4999740;28;20214;-75
2022/10/01 02:41:56;;;;;;;0.10;0.10;;;7.80;99.90;;;;;;4990864;28;20707;-77
2022/10/01 02:44:36;;;;;;;0.10;0.10;;;7.80;99.90;;;;;;4982621;28;20204;-76
2022/10/01 02:47:09;;;;;;;0.10;0.10;;;7.80;99.90;;;;;;4979954;28;20196;-76
2022/10/01 02:49:40;;;;;;;0.00;0.00;;;7.80;99.90;;;;;;4992093;28;20197;-76
2022/10/01 02:52:13;;;;;;;0.10;0.10;;;7.80;99.90;;;;;;4992228;28;20690;-76
2022/10/01 02:54:48;;;;;;;0.08;0.08;;;7.80;99.90;;;;;;4989568;28;20219;-76
2022/10/01 02:57:26;;;;;;;0.10;0.10;;;7.80;99.90;;;;;;4984843;28;20258;-76
2022/10/01 03:00:00;;;;;;;0.10;0.10;;;7.80;99.90;;;;;;4991926;28;20695;-76
2022/10/01 03:02:30;;;;;;;0.03;0.03;;;7.80;99.90;;;;;;4990996;28;20667;-75
2022/10/01 03:04:59;;;;;;;0.05;0.05;;;7.90;99.90;;;;;;4957194;28;20201;-76
2022/10/01 03:07:30;;;;;;;0.10;0.10;;;7.90;99.90;;;;;;4981743;28;20221;-75
2022/10/01 03:09:58;;;;;;;0.00;0.00;;;7.90;99.90;;;;;;4993372;28;20690;-77
2022/10/01 03:12:26;;;;;;;0.10;0.10;;;7.90;99.90;;;;;;4984779;28;20252;-75
2022/10/01 03:14:54;;;;;;;0.10;0.10;;;7.80;99.90;;;;;;4962015;28;20225;-74
2022/10/01 03:17:23;;;;;;;0.10;0.10;;;7.90;99.90;;;;;;4986568;28;20254;-76
2022/10/01 03:19:51;;;;;;;0.10;0.10;;;7.80;99.90;;;;;;4985819;28;20201;-75
2022/10/01 03:22:21;;;;;;;0.10;0.10;;;7.90;99.90;;;;;;4976403;28;20200;-74
2022/10/01 03:24:49;;;;;;;0.10;0.10;;;7.90;99.90;;;;;;4975536;28;20201;-74
2022/10/01 03:27:17;;;;;;;0.10;0.10;;;7.90;99.90;;;;;;4990243;28;20890;-74
2022/10/01 03:29:45;;;;;;;0.00;0.00;;;7.90;99.90;;;;;;4987473;28;20688;-74
2022/10/01 03:32:13;;;;;;;0.10;0.10;;;7.90;99.90;;;;;;4956932;29;20221;-75
2022/10/01 03:34:43;;;;;;;0.10;0.10;;;7.90;99.90;;;;;;4979130;28;20224;-74
2022/10/01 03:37:11;;;;;;;0.10;0.10;;;7.80;99.90;;;;;;4989169;28;20613;-74
2022/10/01 03:39:39;;;;;;;0.10;0.10;;;7.80;99.90;;;;;;4989898;28;20611;-74
2022/10/01 03:42:07;;;;;;;0.10;0.10;;;7.80;99.90;;;;;;4962727;28;20197;-74
2022/10/01 03:44:35;;;;;;;0.10;0.10;;;8.00;99.90;;;;;;4975751;28;20264;-75
2022/10/01 03:47:03;;;;;;;0.10;0.10;;;8.00;99.90;;;;;;4986137;28;20282;-76
2022/10/01 03:49:31;;;;;;;0.00;0.00;;;8.00;99.90;;;;;;4980494;28;20852;-74
2022/10/01 03:52:01;;;;;;;0.10;0.10;;;7.90;99.90;;;;;;4975306;28;20225;-74
2022/10/01 03:54:30;;;;;;;0.10;0.10;;;7.90;99.90;;;;;;4975470;28;20217;-74
2022/10/01 03:56:58;;;;;;;0.10;0.10;;;7.90;99.90;;;;;;4985251;28;20196;-75
2022/10/01 03:59:26;;;;;;;0.10;0.10;;;7.90;99.90;;;;;;4991756;28;20196;-74
2022/10/01 04:01:54;;;;;;;0.10;0.10;;;8.00;99.90;;;;;;4994140;28;20232;-74
2022/10/01 04:04:22;;;;;;;0.10;0.10;;;8.00;99.90;;;;;;4994746;28;20197;-74
2022/10/01 04:06:50;;;;;;;0.10;0.10;;;8.00;99.90;;;;;;4974217;28;20205;-74
2022/10/01 04:09:19;;;;;;;0.10;0.10;;;8.00;99.90;;;;;;4994307;28;20239;-74
2022/10/01 04:11:47;;;;;;;0.10;0.10;;;8.00;99.90;;;;;;4958152;28;20716;-73
2022/10/01 04:14:15;;;;;;;0.10;0.10;;;8.00;99.90;;;;;;4955305;28;20197;-73
2022/10/01 04:16:44;;;;;;;0.10;0.10;;;8.00;99.90;;;;;;4975719;28;20196;-74
2022/10/01 04:19:11;;;;;;;0.10;0.10;;;8.10;99.90;;;;;;4993991;28;20679;-73
2022/10/01 04:21:40;;;;;;;0.10;0.10;;;8.10;99.90;;;;;;4977197;28;20224;-74
2022/10/01 04:24:08;;;;;;;0.00;0.00;;;8.10;99.90;;;;;;5000935;28;20276;-74
2022/10/01 04:26:37;;;;;;;0.10;0.10;;;8.10;99.90;;;;;;5005892;28;20201;-74
2022/10/01 04:29:05;;;;;;;0.10;0.10;;;8.10;99.90;;;;;;5013920;28;20228;-74
2022/10/01 04:31:34;;;;;;;0.10;0.10;;;8.10;99.90;;;;;;4982815;28;20273;-75
2022/10/01 04:34:03;;;;;;;0.00;0.00;;;8.00;99.90;;;;;;4961449;28;20209;-74
2022/10/01 04:36:31;;;;;;;0.00;0.00;;;8.10;99.90;;;;;;4981419;28;20235;-73
2022/10/01 04:38:59;;;;;;;0.10;0.10;;;8.10;99.90;;;;;;4970967;28;20232;-74
2022/10/01 04:41:30;;;;;;;0.00;0.00;;;8.10;99.90;;;;;;4994119;28;20220;-74
2022/10/01 04:44:00;;;;;;;0.10;0.10;;;8.10;99.90;;;;;;4993877;28;20266;-74
2022/10/01 04:46:29;;;;;;;0.10;0.10;;;8.20;99.90;;;;;;4985588;28;20254;-74
2022/10/01 04:48:57;;;;;;;0.00;0.00;;;8.20;99.90;;;;;;4966938;28;20192;-74
2022/10/01 04:51:25;;;;;;;0.10;0.10;;;8.20;99.90;;;;;;4984135;28;20251;-75
2022/10/01 04:53:54;;;;;;;0.10;0.10;;;8.20;99.90;;;;;;4955307;29;20296;-76
2022/10/01 04:56:22;;;;;;;0.10;0.10;;;8.20;99.90;;;;;;4959309;28;20228;-75
2022/10/01 04:58:50;;;;;;;0.10;0.10;;;8.20;99.90;;;;;;4976685;28;20194;-75
2022/10/01 05:01:19;;;;;;;0.10;0.10;;;8.20;99.90;;;;;;4973646;28;20233;-75
2022/10/01 05:03:47;;;;;;;0.10;0.10;;;8.20;99.90;;;;;;4974222;28;20205;-77
2022/10/01 05:06:15;;;;;;;0.10;0.10;;;8.20;99.90;;;;;;4970966;28;20239;-77
2022/10/01 05:08:43;;;;;;;0.10;0.10;;;8.30;99.90;;;;;;4982170;28;20557;-73
2022/10/01 05:11:11;;;;;;;0.10;0.10;;;8.40;99.90;;;;;;4973401;28;20486;-75
2022/10/01 05:13:39;;;;;;;0.10;0.10;;;8.40;99.90;;;;;;4972432;28;20202;-76
2022/10/01 05:16:07;;;;;;;0.10;0.10;;;8.40;99.90;;;;;;4966077;28;20220;-75
2022/10/01 05:18:38;;;;;;;0.10;0.10;;;8.40;99.90;;;;;;4969973;28;20712;-76
2022/10/01 05:21:07;;;;;;;0.10;0.10;;;8.40;99.90;;;;;;4958997;28;20221;-76
2022/10/01 05:23:35;;;;;;;0.10;0.10;;;8.40;99.90;;;;;;4974113;28;20200;-75
2022/10/01 05:26:04;;;;;;;0.03;0.03;;;8.40;99.90;;;;;;4973075;28;20193;-76
2022/10/01 05:28:34;;;;;;;0.10;0.10;;;8.30;99.90;;;;;;4982450;28;20291;-77
2022/10/01 05:31:03;;;;;;;0.10;0.10;;;8.30;99.90;;;;;;4972126;28;20284;-75
2022/10/01 05:33:32;;;;;;;0.10;0.10;;;8.20;99.90;;;;;;4973881;28;20624;-75
2022/10/01 05:36:03;;;;;;;0.10;0.10;;;8.20;99.90;;;;;;4976980;28;20294;-76
2022/10/01 05:38:35;;;;;;;0.10;0.10;;;8.10;99.90;;;;;;4978733;28;20265;-75
2022/10/01 05:41:03;;;;;;;0.00;0.00;;;8.10;99.90;;;;;;4974485;28;20273;-75
2022/10/01 05:43:30;;;;;;;0.00;0.00;;;8.20;99.90;;;;;;4988596;28;20274;-75
2022/10/01 05:46:00;;;;;;;0.00;0.00;;;8.20;99.90;;;;;;4967443;28;20258;-75
2022/10/01 05:48:35;;;;;;;0.10;0.10;;;8.20;99.90;;;;;;4958951;28;20236;-75
2022/10/01 05:51:07;;;;;;;0.10;0.10;;;8.20;99.90;;;;;;4985292;28;20223;-76
2022/10/01 05:53:36;;;;;;;0.10;0.10;;;8.20;99.90;;;;;;4985513;28;20201;-75
2022/10/01 05:56:04;;;;;;;0.00;0.00;;;8.30;99.90;;;;;;4968799;28;20275;-75
2022/10/01 05:58:32;;;;;;;0.10;0.10;;;8.30;99.90;;;;;;4973916;28;20304;-77
2022/10/01 06:01:01;;;;;;;0.10;0.10;;;8.20;99.90;;;;;;4984508;28;20228;-76
2022/10/01 06:03:29;;;;;;;0.10;0.10;;;8.20;99.90;;;;;;4992569;28;20425;-75
2022/10/01 06:05:57;;;;;;;0.10;0.10;;;8.30;99.90;;;;;;4977502;28;20661;-76
2022/10/01 06:08:27;;;;;;;0.05;0.05;;;8.30;99.90;;;;;;4977791;28;20216;-75
2022/10/01 06:11:00;;;;;;;0.10;0.10;;;8.40;99.90;;;;;;4978755;28;20234;-76
2022/10/01 06:13:28;;;;;;;0.10;0.10;;;8.50;99.90;;;;;;4988778;28;20196;-75
2022/10/01 06:15:56;;;;;;;0.03;0.03;;;8.60;99.90;;;;;;4975641;28;20251;-76
2022/10/01 06:18:26;;;;;;;0.10;0.10;;;8.80;99.90;;;;;;4979748;28;20232;-75
2022/10/01 06:20:53;;;;;;;0.10;0.10;;;9.00;99.90;;;;;;4972341;28;20881;-75
2022/10/01 06:23:22;;;;;;;0.10;0.10;;;9.10;99.90;;;;;;4970859;28;20692;-77
2022/10/01 06:25:51;;;;;;;0.10;0.10;;;9.20;99.90;;;;;;4969467;28;20205;-75
2022/10/01 06:28:19;;;;;;;0.10;0.10;;;9.30;99.90;;;;;;4965292;28;20701;-75
2022/10/01 06:30:48;;;;;;;0.10;0.10;;;9.30;99.90;;;;;;4963736;28;20292;-75
2022/10/01 06:33:17;;;;;;;0.10;0.10;;;9.30;99.90;;;;;;4971004;28;20212;-74
2022/10/01 06:35:46;;;;;;;0.10;0.10;;;9.40;99.90;;;;;;4971294;28;20221;-75
2022/10/01 06:38:16;;;;;;;0.10;0.10;;;9.40;99.90;;;;;;4987750;28;20300;-75
2022/10/01 06:40:44;;;;;;;0.10;0.10;;;9.40;99.90;;;;;;4989799;28;20231;-75
2022/10/01 06:43:13;;;;;;;0.10;0.10;;;9.40;99.90;;;;;;4971726;28;20208;-75
2022/10/01 06:45:42;;;;;;;0.10;0.10;;;9.40;99.90;;;;;;4965574;28;20213;-76
2022/10/01 06:48:13;;;;;;;0.10;0.10;;;9.40;99.90;;;;;;4975963;28;20597;-75
2022/10/01 06:50:43;;;;;;;0.10;0.10;;;9.40;99.90;;;;;;4953099;29;20277;-76
2022/10/01 06:53:11;;;;;;;0.10;0.10;;;9.40;99.90;;;;;;4962982;28;20606;-76
2022/10/01 06:55:40;;;;;;;0.10;0.10;;;9.40;99.90;;;;;;4980131;28;20205;-76
2022/10/01 06:58:12;;;;;;;0.10;0.10;;;9.50;99.90;;;;;;4978374;28;20200;-76
2022/10/01 07:00:42;;;;;;;0.10;0.10;;;9.50;99.90;;;;;;4935966;28;20779;-76
2022/10/01 07:03:15;;;;;;;0.00;0.00;;;9.50;99.90;;;;;;4956732;28;20288;-77
2022/10/01 07:05:44;;;;;;;0.10;0.10;;;9.50;99.90;;;;;;4974981;28;20576;-75
2022/10/01 07:08:13;;;;;;;0.10;0.10;;;9.50;99.90;;;;;;4981146;28;20208;-76
2022/10/01 07:10:42;;;;;;;0.10;0.10;;;9.50;99.90;;;;;;4966990;28;20225;-76
2022/10/01 07:13:12;;;;;;;0.00;0.00;;;9.50;99.90;;;;;;4974956;28;20201;-77
2022/10/01 07:15:41;;;;;;;0.10;0.10;;;9.50;99.90;;;;;;4982561;28;20228;-77
2022/10/01 07:18:09;;;;;;;0.00;0.00;;;9.50;99.90;;;;;;4989534;28;20249;-76
2022/10/01 07:20:39;;;;;;;0.10;0.10;;;9.50;99.90;;;;;;4997067;28;20241;-75
2022/10/01 07:23:10;;;;;;;0.10;0.10;;;9.60;99.90;;;;;;4989766;28;20204;-75
2022/10/01 07:25:38;;;;;;;0.10;0.10;;;9.60;99.90;;;;;;4978771;28;20259;-75
2022/10/01 07:28:14;;;;;;;0.10;0.10;;;9.60;99.90;;;;;;4983751;28;20237;-76
2022/10/01 07:30:46;;;;;;;0.10;0.10;;;9.50;99.90;;;;;;4977286;28;20311;-76
2022/10/01 07:33:17;;;;;;;0.10;0.10;;;9.60;99.90;;;;;;4977556;28;20213;-76
2022/10/01 07:35:46;;;;;;;0.10;0.10;;;9.60;99.90;;;;;;4985135;28;20280;-77
2022/10/01 07:38:15;;;;;;;0.10;0.10;;;9.60;99.90;;;;;;4969999;28;20287;-76
2022/10/01 07:40:43;;;;;;;0.00;0.00;;;9.70;99.90;;;;;;4976195;28;20236;-76
2022/10/01 07:43:13;;;;;;;0.10;0.10;;;9.70;99.90;;;;;;4962882;28;20202;-75
2022/10/01 07:45:41;;;;;;;0.10;0.10;;;9.80;99.90;;;;;;4976202;28;20635;-76
2022/10/01 07:48:10;;;;;;;0.10;0.10;;;9.80;99.90;;;;;;4964316;28;20237;-76
2022/10/01 07:50:38;;;;;;;0.10;0.10;;;9.80;99.90;;;;;;4979803;28;20703;-76
2022/10/01 07:53:06;;;;;;;0.10;0.10;;;9.80;99.90;;;;;;4987423;28;20264;-75
2022/10/01 07:55:35;;;;;;;0.00;0.00;;;9.90;99.90;;;;;;4989496;28;20672;-76
2022/10/01 07:58:04;;;;;;;0.10;0.10;;;9.90;99.90;;;;;;4975153;28;20220;-75
2022/10/01 08:00:33;;;;;;;0.10;0.10;;;9.90;99.90;;;;;;4970759;28;20225;-76
2022/10/01 08:03:02;;;;;;;0.10;0.10;;;10.00;99.90;;;;;;4964053;28;20214;-77
2022/10/01 08:05:33;;;;;;;0.10;0.10;;;10.00;99.90;;;;;;4965443;28;20197;-76
2022/10/01 08:08:02;;;;;;;0.10;0.10;;;10.00;99.90;;;;;;4979249;28;20615;-76
2022/10/01 08:10:32;;;;;;;0.10;0.10;;;10.10;99.90;;;;;;4968287;28;20224;-75
2022/10/01 08:13:01;;;;;;;0.10;0.10;;;10.10;99.90;;;;;;4976375;28;20213;-78
2022/10/01 08:15:29;;;;;;;0.10;0.10;;;10.20;99.90;;;;;;4973892;28;20544;-77
2022/10/01 08:17:56;;;;;;;0.10;0.10;;;10.20;99.90;;;;;;4961641;28;20237;-76
2022/10/01 08:20:24;;;;;;;0.10;0.10;;;10.30;99.90;;;;;;4956076;29;20213;-76
2022/10/01 08:22:54;;;;;;;0.10;0.10;;;10.40;99.90;;;;;;4961944;28;20676;-76
2022/10/01 08:25:22;;;;;;;0.08;0.08;;;10.50;99.90;;;;;;4978823;28;20271;-75
2022/10/01 08:27:50;;;;;;;0.08;0.08;;;10.50;99.90;;;;;;4969197;28;20193;-76
2022/10/01 08:30:18;;;;;;;0.10;0.10;;;10.70;99.90;;;;;;4956282;29;20217;-75
2022/10/01 08:32:46;;;;;;;0.10;0.10;;;10.70;99.90;;;;;;4961999;28;20216;-76
2022/10/01 08:35:14;;;;;;;0.10;0.10;;;10.80;99.90;;;;;;4979200;28;20581;-75
2022/10/01 08:37:41;;;;;;;0.00;0.00;;;10.90;99.90;;;;;;4970950;28;20228;-75
2022/10/01 08:40:11;;;;;;;0.10;0.10;;;11.00;99.90;;;;;;4985746;28;20228;-76
2022/10/01 08:42:50;;;;;;;0.10;0.10;;;11.10;99.90;;;;;;4982538;28;20739;-76
2022/10/01 08:45:25;;;;;;;0.10;0.10;;;11.20;99.90;;;;;;4979226;28;20216;-76
2022/10/01 08:48:00;;;;;;;0.10;0.10;;;11.20;99.90;;;;;;4994376;28;20199;-76
2022/10/01 08:50:36;;;;;;;0.10;0.10;;;11.30;99.90;;;;;;4973291;28;20220;-76
2022/10/01 08:53:10;;;;;;;0.10;0.10;;;11.40;99.90;;;;;;4977153;28;20200;-76
2022/10/01 08:55:40;;;;;;;0.10;0.10;;;11.40;99.90;;;;;;4974906;28;20666;-75
2022/10/01 08:58:15;;;;;;;0.10;0.10;;;11.40;99.90;;;;;;4958694;28;20640;-78
2022/10/01 09:00:46;;;;;;;0.10;0.10;;;11.50;99.90;;;;;;4964307;28;20717;-76
2022/10/01 09:03:15;;;;;;;0.00;0.00;;;11.50;99.90;;;;;;4985944;23;20233;-76
2022/10/01 09:05:57;;;;;;;0.10;0.10;;;11.50;99.90;;;;;;4972147;28;20255;-76
2022/10/01 09:08:43;;;;;;;0.10;0.10;;;11.50;99.90;;;;;;4971937;28;20205;-76
2022/10/01 09:11:23;;;;;;;0.10;0.10;;;11.40;99.90;;;;;;4977388;28;20609;-76
2022/10/01 09:14:03;;;;;;;0.10;0.10;;;11.40;99.90;;;;;;4970282;28;20264;-76
2022/10/01 09:16:37;;;;;;;0.10;0.10;;;11.40;99.90;;;;;;4960859;28;20263;-76
2022/10/01 09:19:20;;;;;;;0.10;0.10;;;11.40;99.90;;;;;;4963002;28;20235;-77
2022/10/01 09:21:55;;;;;;;0.10;0.10;;;11.40;99.90;;;;;;4960946;28;20260;-77
2022/10/01 09:24:37;;;;;;;0.10;0.10;;;11.30;99.90;;;;;;4955802;28;20209;-78
2022/10/01 09:27:12;;;;;;;0.10;0.10;;;11.20;99.90;;;;;;4952657;28;20205;-77
2022/10/01 09:29:44;;;;;;;0.10;0.10;;;11.10;99.90;;;;;;4959278;28;20208;-77
2022/10/01 09:32:17;;;;;;;0.10;0.10;;;11.00;99.90;;;;;;4965802;28;20225;-78
2022/10/01 09:34:45;;;;;;;0.10;0.10;;;11.00;99.90;;;;;;4970751;28;20672;-78
2022/10/01 09:37:23;;;;;;;0.08;0.08;;;10.90;99.90;;;;;;4946290;28;20209;-77
2022/10/01 09:40:07;;;;;;;0.10;0.10;;;10.80;99.90;;;;;;4941509;28;20546;-78
2022/10/01 09:42:36;;;;;;;0.10;0.10;;;10.70;99.90;;;;;;4967044;28;20228;-79
2022/10/01 09:45:05;;;;;;;0.10;0.10;;;10.70;99.90;;;;;;4961136;28;20211;-78
2022/10/01 09:47:33;;;;;;;0.10;0.10;;;10.70;99.90;;;;;;4958598;28;20260;-78
2022/10/01 09:50:07;;;;;;;0.03;0.03;;;10.70;99.90;;;;;;4958865;28;20610;-78
2022/10/01 09:52:39;;;;;;;0.10;0.10;;;10.70;99.90;;;;;;4973595;28;20221;-78
2022/10/01 09:55:19;;;;;;;0.10;0.10;;;10.70;99.90;;;;;;4944070;28;20210;-78
2022/10/01 09:57:53;;;;;;;0.10;0.10;;;10.70;99.90;;;;;;4963233;28;20217;-78
2022/10/01 10:00:22;;;;;;;0.10;0.10;;;10.70;99.90;;;;;;4957171;28;20268;-78
2022/10/01 10:02:52;;;;;;;0.10;0.10;;;10.70;99.90;;;;;;4957888;28;20232;-78
2022/10/01 10:05:22;;;;;;;0.10;0.10;;;10.70;99.90;;;;;;4952191;28;20236;-78
2022/10/01 10:07:52;;;;;;;0.10;0.10;;;10.70;99.90;;;;;;4954317;28;20258;-78
2022/10/01 10:10:24;;;;;;;0.10;0.10;;;10.70;99.90;;;;;;4947906;29;20210;-78
2022/10/01 10:13:00;;;;;;;0.10;0.10;;;10.70;99.90;;;;;;4961611;28;20329;-78
2022/10/01 10:15:30;;;;;;;0.10;0.10;;;10.80;99.90;;;;;;4951553;28;20209;-78
2022/10/01 10:18:09;;;;;;;0.10;0.10;;;10.80;99.90;;;;;;4965074;28;20248;-78
2022/10/01 10:20:40;;;;;;;0.10;0.10;;;10.80;99.90;;;;;;4955908;28;20197;-78
2022/10/01 10:23:14;;;;;;;0.00;0.00;;;10.70;99.90;;;;;;4968203;28;20214;-78
2022/10/01 10:25:41;;;;;;;0.10;0.10;;;10.70;99.90;;;;;;4954836;28;20259;-77
2022/10/01 10:28:23;;;;;;;0.10;0.10;;;10.70;99.90;;;;;;4971168;28;20292;-77
2022/10/01 10:30:54;;;;;;;0.10;0.10;;;10.70;99.90;;;;;;4956322;28;20213;-77
2022/10/01 10:33:25;;;;;;;0.10;0.10;;;10.60;99.90;;;;;;4972929;28;20260;-77
2022/10/01 10:35:58;;;;;;;0.10;0.10;;;10.60;99.90;;;;;;4972934;28;20197;-77
2022/10/01 10:38:31;;;;;;;0.10;0.10;;;10.60;99.90;;;;;;4958921;28;20631;-77
2022/10/01 10:40:59;;;;;;;0.10;0.10;;;10.60;99.90;;;;;;4959637;28;20205;-77
2022/10/01 10:43:34;;;;;;;0.10;0.10;;;10.60;99.90;;;;;;4973010;28;20224;-78
2022/10/01 10:46:02;;;;;;;0.10;0.10;;;10.60;99.90;;;;;;4943740;28;20212;-77
2022/10/01 10:48:36;;;;;;;0.10;0.10;;;10.60;99.90;;;;;;4950674;28;20427;-77
2022/10/01 10:51:05;;;;;;;0.10;0.10;;;10.50;99.90;;;;;;4964498;28;20193;-77
2022/10/01 10:53:42;;;;;;;0.10;0.10;;;10.50;99.90;;;;;;4966502;28;20724;-77
2022/10/01 10:56:21;;;;;;;0.10;0.10;;;10.50;99.90;;;;;;4958174;28;20207;-78
2022/10/01 10:58:52;;;;;;;0.10;0.10;;;10.50;99.90;;;;;;4960276;28;20221;-78
2022/10/01 11:01:27;;;;;;;0.10;0.10;;;10.40;99.90;;;;;;4965381;28;20266;-78
2022/10/01 11:03:59;;;;;;;0.10;0.10;;;10.40;99.90;;;;;;4953779;28;20232;-77
2022/10/01 11:06:29;;;;;;;0.10;0.10;;;10.40;99.90;;;;;;4944111;28;20206;-77
2022/10/01 11:09:06;;;;;;;0.10;0.10;;;10.40;99.90;;;;;;4939266;28;20235;-78
2022/10/01 11:11:52;;;;;;;0.10;0.10;;;10.40;99.90;;;;;;4950984;28;20201;-78
2022/10/01 11:14:35;;;;;;;0.10;0.10;;;10.30;99.90;;;;;;4940681;29;20201;-77
2022/10/01 11:17:22;;;;;;;0.10;0.10;;;10.30;99.90;;;;;;4959319;28;20252;-77
2022/10/01 11:20:23;;;;;;;0.10;0.10;;;10.30;99.90;;;;;;4964096;28;20718;-76
2022/10/01 11:23:06;;;;;;;0.10;0.10;;;10.30;99.90;;;;;;4952623;28;20591;-77
2022/10/01 11:25:45;;;;;;;0.10;0.10;;;10.30;99.90;;;;;;4960006;28;20280;-77
2022/10/01 11:28:32;;;;;;;0.10;0.10;;;10.30;99.90;;;;;;4976090;28;20251;-77
2022/10/01 11:31:09;;;;;;;0.10;0.10;;;10.30;99.90;;;;;;4965957;28;20239;-76
2022/10/01 11:33:46;;;;;;;0.10;0.10;;;10.30;99.90;;;;;;4956437;28;20312;-76
2022/10/01 11:36:23;;;;;;;0.10;0.10;;;10.30;99.90;;;;;;4964166;28;20539;-76
2022/10/01 11:38:57;;;;;;;0.10;0.10;;;10.30;99.90;;;;;;4954576;28;20213;-76
2022/10/01 11:41:30;;;;;;;0.10;0.10;;;10.20;99.90;;;;;;4975937;28;20200;-76
2022/10/01 11:44:03;;;;;;;0.10;0.10;;;10.20;99.90;;;;;;4960887;28;20249;-76
2022/10/01 11:46:42;;;;;;;0.10;0.10;;;10.20;99.90;;;;;;4954989;28;20256;-76
2022/10/01 11:49:50;;;;;;;0.10;0.10;;;10.20;99.90;;;;;;4950359;29;20229;-77
2022/10/01 11:52:32;;;;;;;0.10;0.10;;;10.30;99.90;;;;;;4901715;29;20703;-76
2022/10/01 12:01:05;;;;;;;0.10;0.10;;;10.40;99.90;;;;;;4952326;28;20608;-76
2022/10/01 12:03:45;;;;;;;0.10;0.10;;;10.40;99.90;;;;;;4975685;28;20228;-76
2022/10/01 12:06:14;;;;;;;0.10;0.10;;;10.40;99.90;;;;;;4960835;28;20209;-76
2022/10/01 12:08:50;;;;;;;0.10;0.10;;;10.40;99.90;;;;;;4972247;28;20200;-76
2022/10/01 12:11:27;;;;;;;0.10;0.10;;;10.30;99.90;;;;;;4965543;28;20614;-76
2022/10/01 12:14:00;;;;;;;0.10;0.10;;;10.40;99.90;;;;;;4976917;28;20246;-77
2022/10/01 12:16:38;;;;;;;0.10;0.10;;;10.40;99.90;;;;;;4968645;28;20217;-76
2022/10/01 12:19:16;;;;;;;0.10;0.10;;;10.40;99.90;;;;;;4956960;28;20257;-76
2022/10/01 12:21:50;;;;;;;0.10;0.10;;;10.40;99.90;;;;;;4952785;28;20203;-76
2022/10/01 12:24:22;;;;;;;0.10;0.10;;;10.50;99.90;;;;;;4967064;28;20206;-77
2022/10/01 12:27:00;;;;;;;0.10;0.10;;;10.50;99.90;;;;;;4967365;28;20259;-76
2022/10/01 12:29:40;;;;;;;0.05;0.05;;;10.50;99.90;;;;;;4966514;28;20201;-76
2022/10/01 12:32:17;;;;;;;0.10;0.10;;;10.50;99.90;;;;;;4967933;28;20622;-77
2022/10/01 12:34:58;;;;;;;0.08;0.08;;;10.50;99.90;;;;;;4974251;28;20193;-77
2022/10/01 12:37:36;;;;;;;0.10;0.10;;;10.60;99.90;;;;;;4959040;28;20255;-77
2022/10/01 12:40:18;;;;;;;0.10;0.10;;;10.50;99.90;;;;;;4952667;28;20229;-77
2022/10/01 12:43:23;;;;;;;0.10;0.10;;;10.60;99.90;;;;;;4966321;28;20221;-77
2022/10/01 12:45:57;;;;;;;0.10;0.10;;;10.60;99.90;;;;;;4965703;28;20204;-77
2022/10/01 12:48:35;;;;;;;0.10;0.10;;;10.70;99.90;;;;;;4974433;28;20634;-76
2022/10/01 12:51:28;;;;;;;0.10;0.10;;;10.70;99.90;;;;;;4971807;28;20656;-76
2022/10/01 12:54:06;;;;;;;0.08;0.08;;;10.70;99.90;;;;;;4953319;28;20620;-77
2022/10/01 12:56:45;;;;;;;0.10;0.10;;;10.70;99.90;;;;;;4964697;28;20205;-77
2022/10/01 12:59:31;;;;;;;0.10;0.10;;;10.70;99.90;;;;;;4953437;29;20447;-77
2022/10/01 13:02:11;;;;;;;0.10;0.10;;;10.80;99.90;;;;;;4958630;28;20275;-76
2022/10/01 13:05:01;;;;;;;0.10;0.10;;;10.80;99.90;;;;;;4954860;28;20205;-76
2022/10/01 13:07:47;;;;;;;0.10;0.10;;;10.80;99.90;;;;;;4967251;28;20264;-76
2022/10/01 13:10:29;;;;;;;0.10;0.10;;;10.80;99.90;;;;;;4974788;28;20212;-77
2022/10/01 13:13:06;;;;;;;0.10;0.10;;;10.80;99.90;;;;;;4972941;28;20256;-77
2022/10/01 13:15:37;;;;;;;0.10;0.10;;;10.80;99.90;;;;;;4960980;28;20209;-76
2022/10/01 13:18:19;;;;;;;0.10;0.10;;;10.80;99.90;;;;;;4950223;28;20688;-77
2022/10/01 13:20:56;;;;;;;0.10;0.10;;;10.80;99.90;;;;;;4961585;28;20282;-76
2022/10/01 13:23:31;;;;;;;0.00;0.00;;;10.80;99.90;;;;;;4956354;28;20226;-77
2022/10/01 13:26:07;;;;;;;0.00;0.00;;;10.80;99.90;;;;;;4965588;28;20201;-76